sensor_id;sensor_type;location;lat;lon;timestamp;temperature;humidity
5196;DHT22;2617;51.006;12.436;2023-04-23T00:02:33;14.60;98.60
5196;DHT22;2617;51.006;12.436;2023-04-23T00:07:35;14.60;98.30
5196;DHT22;2617;51.006;12.436;2023-04-23T00:12:39;14.60;99.90
5196;DHT22;2617;51.006;12.436;2023-04-23T00:17:42;14.60;99.90
5196;DHT22;2617;51.006;12.436;2023-04-23T00:22:44;14.50;99.90
5196;DHT22;2617;51.006;12.436;2023-04-23T00:27:47;14.40;99.90
5196;DHT22;2617;51.006;12.436;2023-04-23T00:32:50;14.40;99.90
5196;DHT22;2617;51.006;12.436;2023-04-23T00:37:52;14.40;99.90
5196;DHT22;2617;51.006;12.436;2023-04-23T00:42:55;14.20;99.90
5196;DHT22;2617;51.006;12.436;2023-04-23T00:47:59;14.10;99.90
5196;DHT22;2617;51.006;12.436;2023-04-23T00:53:01;14.10;99.90
5196;DHT22;2617;51.006;12.436;2023-04-23T00:58:04;13.90;99.90
5196;DHT22;2617;51.006;12.436;2023-04-23T01:03:06;13.80;99.90
5196;DHT22;2617;51.006;12.436;2023-04-23T01:08:10;13.70;99.90
5196;DHT22;2617;51.006;12.436;2023-04-23T01:13:13;13.70;99.90
5196;DHT22;2617;51.006;12.436;2023-04-23T01:18:15;13.60;99.90
5196;DHT22;2617;51.006;12.436;2023-04-23T01:23:18;13.60;99.90
5196;DHT22;2617;51.006;12.436;2023-04-23T01:28:20;13.60;99.90
5196;DHT22;2617;51.006;12.436;2023-04-23T01:33:23;13.40;99.90
5196;DHT22;2617;51.006;12.436;2023-04-23T01:38:26;13.30;99.90
5196;DHT22;2617;51.006;12.436;2023-04-23T01:43:29;13.20;99.90
5196;DHT22;2617;51.006;12.436;2023-04-23T01:48:32;13.10;99.90
5196;DHT22;2617;51.006;12.436;2023-04-23T01:53:35;13.10;99.90
5196;DHT22;2617;51.006;12.436;2023-04-23T01:58:38;13.00;99.90
5196;DHT22;2617;51.006;12.436;2023-04-23T02:03:40;13.00;99.90
5196;DHT22;2617;51.006;12.436;2023-04-23T02:08:43;13.00;99.90
5196;DHT22;2617;51.006;12.436;2023-04-23T02:13:46;12.90;99.90
5196;DHT22;2617;51.006;12.436;2023-04-23T02:18:48;12.90;99.90
5196;DHT22;2617;51.006;12.436;2023-04-23T02:23:51;12.90;99.90
5196;DHT22;2617;51.006;12.436;2023-04-23T02:28:53;12.80;99.90
5196;DHT22;2617;51.006;12.436;2023-04-23T02:33:55;12.80;99.90
5196;DHT22;2617;51.006;12.436;2023-04-23T02:38:58;12.80;99.90
5196;DHT22;2617;51.006;12.436;2023-04-23T02:44:00;12.80;99.90
5196;DHT22;2617;51.006;12.436;2023-04-23T02:49:03;12.80;99.90
5196;DHT22;2617;51.006;12.436;2023-04-23T02:54:06;12.80;99.90
5196;DHT22;2617;51.006;12.436;2023-04-23T02:59:08;12.80;99.90
5196;DHT22;2617;51.006;12.436;2023-04-23T03:04:11;12.80;99.90
5196;DHT22;2617;51.006;12.436;2023-04-23T03:09:15;12.90;99.90
5196;DHT22;2617;51.006;12.436;2023-04-23T03:14:17;12.90;99.90
5196;DHT22;2617;51.006;12.436;2023-04-23T03:19:20;12.90;99.90
5196;DHT22;2617;51.006;12.436;2023-04-23T03:24:22;13.00;99.90
5196;DHT22;2617;51.006;12.436;2023-04-23T03:29:25;12.90;99.90
5196;DHT22;2617;51.006;12.436;2023-04-23T03:34:27;13.00;99.90
5196;DHT22;2617;51.006;12.436;2023-04-23T03:39:30;13.00;99.90
5196;DHT22;2617;51.006;12.436;2023-04-23T03:44:32;13.00;99.90
5196;DHT22;2617;51.006;12.436;2023-04-23T03:49:34;12.90;99.90
5196;DHT22;2617;51.006;12.436;2023-04-23T03:54:37;13.00;99.90
5196;DHT22;2617;51.006;12.436;2023-04-23T03:59:39;13.00;99.90
5196;DHT22;2617;51.006;12.436;2023-04-23T04:04:42;13.00;99.90
5196;DHT22;2617;51.006;12.436;2023-04-23T04:09:46;13.00;99.90
5196;DHT22;2617;51.006;12.436;2023-04-23T04:14:48;12.90;99.90
5196;DHT22;2617;51.006;12.436;2023-04-23T04:19:51;13.00;99.90
5196;DHT22;2617;51.006;12.436;2023-04-23T04:24:53;12.90;99.90
5196;DHT22;2617;51.006;12.436;2023-04-23T04:29:56;12.90;99.90
5196;DHT22;2617;51.006;12.436;2023-04-23T04:34:59;12.80;99.90
5196;DHT22;2617;51.006;12.436;2023-04-23T04:40:01;12.80;99.90
5196;DHT22;2617;51.006;12.436;2023-04-23T04:45:04;12.80;99.90
5196;DHT22;2617;51.006;12.436;2023-04-23T04:50:07;12.70;99.90
5196;DHT22;2617;51.006;12.436;2023-04-23T04:55:10;12.70;99.90
5196;DHT22;2617;51.006;12.436;2023-04-23T05:00:28;12.70;99.90
5196;DHT22;2617;51.006;12.436;2023-04-23T05:05:31;12.70;99.90
5196;DHT22;2617;51.006;12.436;2023-04-23T05:10:32;12.80;99.90
5196;DHT22;2617;51.006;12.436;2023-04-23T05:15:35;12.80;99.90
5196;DHT22;2617;51.006;12.436;2023-04-23T05:20:37;12.80;99.90
5196;DHT22;2617;51.006;12.436;2023-04-23T05:25:40;12.90;99.90
5196;DHT22;2617;51.006;12.436;2023-04-23T05:30:42;12.90;99.90
5196;DHT22;2617;51.006;12.436;2023-04-23T05:35:45;13.00;99.90
5196;DHT22;2617;51.006;12.436;2023-04-23T05:40:48;13.10;99.90
5196;DHT22;2617;51.006;12.436;2023-04-23T05:45:50;13.10;99.90
5196;DHT22;2617;51.006;12.436;2023-04-23T05:50:53;13.20;99.90
5196;DHT22;2617;51.006;12.436;2023-04-23T05:55:56;13.20;99.90
5196;DHT22;2617;51.006;12.436;2023-04-23T06:00:58;13.20;99.90
5196;DHT22;2617;51.006;12.436;2023-04-23T06:06:01;13.60;99.90
5196;DHT22;2617;51.006;12.436;2023-04-23T06:11:04;13.50;99.90
5196;DHT22;2617;51.006;12.436;2023-04-23T06:16:06;13.60;99.90
5196;DHT22;2617;51.006;12.436;2023-04-23T06:21:10;13.90;99.90
5196;DHT22;2617;51.006;12.436;2023-04-23T06:26:13;14.10;99.90
5196;DHT22;2617;51.006;12.436;2023-04-23T06:31:15;14.10;99.90
5196;DHT22;2617;51.006;12.436;2023-04-23T06:36:18;14.30;99.90
5196;DHT22;2617;51.006;12.436;2023-04-23T06:41:20;14.30;99.90
5196;DHT22;2617;51.006;12.436;2023-04-23T06:46:23;14.60;99.90
5196;DHT22;2617;51.006;12.436;2023-04-23T06:51:26;14.60;99.90
5196;DHT22;2617;51.006;12.436;2023-04-23T06:56:29;15.10;99.90
5196;DHT22;2617;51.006;12.436;2023-04-23T07:01:31;15.10;99.90
5196;DHT22;2617;51.006;12.436;2023-04-23T07:06:34;15.50;99.90
5196;DHT22;2617;51.006;12.436;2023-04-23T07:11:36;15.70;99.90
5196;DHT22;2617;51.006;12.436;2023-04-23T07:16:38;16.00;99.90
5196;DHT22;2617;51.006;12.436;2023-04-23T07:21:42;16.60;99.90
5196;DHT22;2617;51.006;12.436;2023-04-23T07:26:44;16.60;99.90
5196;DHT22;2617;51.006;12.436;2023-04-23T07:31:47;16.80;99.90
5196;DHT22;2617;51.006;12.436;2023-04-23T07:36:50;16.90;99.90
5196;DHT22;2617;51.006;12.436;2023-04-23T07:41:52;16.90;99.90
5196;DHT22;2617;51.006;12.436;2023-04-23T07:46:55;16.80;99.90
5196;DHT22;2617;51.006;12.436;2023-04-23T07:51:58;16.50;99.90
5196;DHT22;2617;51.006;12.436;2023-04-23T07:57:00;16.50;99.90
5196;DHT22;2617;51.006;12.436;2023-04-23T08:02:04;16.20;99.90
5196;DHT22;2617;51.006;12.436;2023-04-23T08:07:07;16.10;99.90
5196;DHT22;2617;51.006;12.436;2023-04-23T08:12:09;16.00;99.90
5196;DHT22;2617;51.006;12.436;2023-04-23T08:17:12;15.70;99.90
5196;DHT22;2617;51.006;12.436;2023-04-23T08:22:14;15.60;99.90
5196;DHT22;2617;51.006;12.436;2023-04-23T08:27:18;15.30;99.90
5196;DHT22;2617;51.006;12.436;2023-04-23T08:32:21;15.30;99.90
5196;DHT22;2617;51.006;12.436;2023-04-23T08:37:23;14.40;99.90
5196;DHT22;2617;51.006;12.436;2023-04-23T08:42:39;13.60;99.90
5196;DHT22;2617;51.006;12.436;2023-04-23T08:47:45;13.20;99.90
5196;DHT22;2617;51.006;12.436;2023-04-23T08:52:49;13.00;99.90
5196;DHT22;2617;51.006;12.436;2023-04-23T08:57:51;12.80;99.90
5196;DHT22;2617;51.006;12.436;2023-04-23T09:02:54;12.70;99.90
5196;DHT22;2617;51.006;12.436;2023-04-23T09:07:57;12.70;99.90
5196;DHT22;2617;51.006;12.436;2023-04-23T09:13:00;12.70;99.90
5196;DHT22;2617;51.006;12.436;2023-04-23T09:18:03;12.60;99.90
5196;DHT22;2617;51.006;12.436;2023-04-23T09:23:06;12.60;99.90
5196;DHT22;2617;51.006;12.436;2023-04-23T09:28:08;12.80;99.90
5196;DHT22;2617;51.006;12.436;2023-04-23T09:33:11;13.00;99.90
5196;DHT22;2617;51.006;12.436;2023-04-23T09:38:14;13.30;99.90
5196;DHT22;2617;51.006;12.436;2023-04-23T09:43:16;13.40;99.90
5196;DHT22;2617;51.006;12.436;2023-04-23T09:48:20;13.70;99.90
5196;DHT22;2617;51.006;12.436;2023-04-23T09:53:22;14.30;99.90
5196;DHT22;2617;51.006;12.436;2023-04-23T09:58:26;15.60;99.90
5196;DHT22;2617;51.006;12.436;2023-04-23T10:03:28;15.60;99.90
5196;DHT22;2617;51.006;12.436;2023-04-23T10:08:30;16.20;99.90
5196;DHT22;2617;51.006;12.436;2023-04-23T10:13:34;16.40;99.90
5196;DHT22;2617;51.006;12.436;2023-04-23T10:18:36;16.80;99.90
5196;DHT22;2617;51.006;12.436;2023-04-23T10:23:40;17.30;99.90
5196;DHT22;2617;51.006;12.436;2023-04-23T10:28:44;17.60;99.90
5196;DHT22;2617;51.006;12.436;2023-04-23T10:33:47;17.50;99.40
5196;DHT22;2617;51.006;12.436;2023-04-23T10:38:50;17.40;99.10
5196;DHT22;2617;51.006;12.436;2023-04-23T10:43:53;17.60;98.50
5196;DHT22;2617;51.006;12.436;2023-04-23T10:49:05;17.70;97.30
5196;DHT22;2617;51.006;12.436;2023-04-23T10:54:14;18.20;95.30
5196;DHT22;2617;51.006;12.436;2023-04-23T10:59:20;18.60;95.60
5196;DHT22;2617;51.006;12.436;2023-04-23T11:04:22;18.60;95.50
5196;DHT22;2617;51.006;12.436;2023-04-23T11:14:53;18.70;92.60
5196;DHT22;2617;51.006;12.436;2023-04-23T11:20:05;18.90;92.80
5196;DHT22;2617;51.006;12.436;2023-04-23T11:25:09;19.10;92.70
5196;DHT22;2617;51.006;12.436;2023-04-23T11:30:15;19.20;90.80
5196;DHT22;2617;51.006;12.436;2023-04-23T11:35:17;19.70;88.60
5196;DHT22;2617;51.006;12.436;2023-04-23T11:40:20;19.80;86.60
5196;DHT22;2617;51.006;12.436;2023-04-23T11:45:25;19.80;86.60
5196;DHT22;2617;51.006;12.436;2023-04-23T11:50:29;20.30;83.40
5196;DHT22;2617;51.006;12.436;2023-04-23T11:55:31;20.20;83.20
5196;DHT22;2617;51.006;12.436;2023-04-23T12:00:33;20.80;82.90
5196;DHT22;2617;51.006;12.436;2023-04-23T12:05:39;20.70;77.00
5196;DHT22;2617;51.006;12.436;2023-04-23T12:10:44;19.80;77.20
5196;DHT22;2617;51.006;12.436;2023-04-23T12:15:50;19.80;77.20
5196;DHT22;2617;51.006;12.436;2023-04-23T12:20:52;19.50;80.60
5196;DHT22;2617;51.006;12.436;2023-04-23T12:25:54;19.80;81.40
5196;DHT22;2617;51.006;12.436;2023-04-23T12:30:58;20.20;81.00
5196;DHT22;2617;51.006;12.436;2023-04-23T12:36:01;21.00;79.50
5196;DHT22;2617;51.006;12.436;2023-04-23T12:41:03;20.90;75.30
5196;DHT22;2617;51.006;12.436;2023-04-23T12:46:06;20.70;75.30
5196;DHT22;2617;51.006;12.436;2023-04-23T12:51:08;20.50;74.80
5196;DHT22;2617;51.006;12.436;2023-04-23T12:56:10;20.10;74.80
5196;DHT22;2617;51.006;12.436;2023-04-23T13:01:13;19.90;74.00
5196;DHT22;2617;51.006;12.436;2023-04-23T13:06:15;19.60;77.00
5196;DHT22;2617;51.006;12.436;2023-04-23T13:11:18;19.70;76.70
5196;DHT22;2617;51.006;12.436;2023-04-23T13:16:20;20.10;75.80
5196;DHT22;2617;51.006;12.436;2023-04-23T13:21:23;20.70;74.50
5196;DHT22;2617;51.006;12.436;2023-04-23T13:26:26;21.10;74.30
5196;DHT22;2617;51.006;12.436;2023-04-23T13:31:29;21.20;73.50
5196;DHT22;2617;51.006;12.436;2023-04-23T13:36:31;21.20;73.50
5196;DHT22;2617;51.006;12.436;2023-04-23T13:41:33;21.10;72.80
5196;DHT22;2617;51.006;12.436;2023-04-23T13:46:36;21.10;74.60
5196;DHT22;2617;51.006;12.436;2023-04-23T13:51:38;21.20;74.90
5196;DHT22;2617;51.006;12.436;2023-04-23T13:56:41;21.40;71.10
5196;DHT22;2617;51.006;12.436;2023-04-23T14:01:44;21.30;71.70
5196;DHT22;2617;51.006;12.436;2023-04-23T14:06:47;21.30;72.30
5196;DHT22;2617;51.006;12.436;2023-04-23T14:11:49;21.10;71.70
5196;DHT22;2617;51.006;12.436;2023-04-23T14:16:52;21.20;72.10
5196;DHT22;2617;51.006;12.436;2023-04-23T14:21:54;21.30;70.70
5196;DHT22;2617;51.006;12.436;2023-04-23T14:26:56;21.40;71.30
5196;DHT22;2617;51.006;12.436;2023-04-23T14:31:59;21.30;70.80
5196;DHT22;2617;51.006;12.436;2023-04-23T14:37:01;21.30;71.60
5196;DHT22;2617;51.006;12.436;2023-04-23T14:42:04;20.40;71.10
5196;DHT22;2617;51.006;12.436;2023-04-23T14:47:08;20.40;72.70
5196;DHT22;2617;51.006;12.436;2023-04-23T14:52:11;20.90;69.30
5196;DHT22;2617;51.006;12.436;2023-04-23T14:57:13;20.90;69.30
5196;DHT22;2617;51.006;12.436;2023-04-23T15:02:16;20.50;69.50
5196;DHT22;2617;51.006;12.436;2023-04-23T15:07:18;20.10;71.40
5196;DHT22;2617;51.006;12.436;2023-04-23T15:17:44;20.10;73.40
5196;DHT22;2617;51.006;12.436;2023-04-23T15:22:46;20.20;75.10
5196;DHT22;2617;51.006;12.436;2023-04-23T15:27:49;20.40;74.10
5196;DHT22;2617;51.006;12.436;2023-04-23T15:32:51;20.50;72.70
5196;DHT22;2617;51.006;12.436;2023-04-23T15:37:55;20.50;73.40
5196;DHT22;2617;51.006;12.436;2023-04-23T15:42:57;20.50;71.10
5196;DHT22;2617;51.006;12.436;2023-04-23T15:47:59;20.40;72.50
5196;DHT22;2617;51.006;12.436;2023-04-23T15:53:03;20.50;71.40
5196;DHT22;2617;51.006;12.436;2023-04-23T15:58:06;20.60;71.40
5196;DHT22;2617;51.006;12.436;2023-04-23T16:03:08;20.60;71.30
5196;DHT22;2617;51.006;12.436;2023-04-23T16:08:11;20.00;74.20
5196;DHT22;2617;51.006;12.436;2023-04-23T16:13:14;19.90;74.10
5196;DHT22;2617;51.006;12.436;2023-04-23T16:18:17;19.70;74.60
5196;DHT22;2617;51.006;12.436;2023-04-23T16:23:19;19.70;74.60
5196;DHT22;2617;51.006;12.436;2023-04-23T16:28:22;19.80;74.40
5196;DHT22;2617;51.006;12.436;2023-04-23T16:33:26;20.00;75.10
5196;DHT22;2617;51.006;12.436;2023-04-23T16:38:29;19.70;74.80
5196;DHT22;2617;51.006;12.436;2023-04-23T16:43:31;19.60;74.60
5196;DHT22;2617;51.006;12.436;2023-04-23T16:48:34;19.30;77.00
5196;DHT22;2617;51.006;12.436;2023-04-23T16:53:36;19.10;78.90
5196;DHT22;2617;51.006;12.436;2023-04-23T16:58:39;19.10;79.10
5196;DHT22;2617;51.006;12.436;2023-04-23T17:03:43;18.60;81.40
5196;DHT22;2617;51.006;12.436;2023-04-23T17:08:45;18.60;81.60
5196;DHT22;2617;51.006;12.436;2023-04-23T17:13:47;18.40;82.30
5196;DHT22;2617;51.006;12.436;2023-04-23T17:18:50;18.20;83.80
5196;DHT22;2617;51.006;12.436;2023-04-23T17:23:52;17.90;84.70
5196;DHT22;2617;51.006;12.436;2023-04-23T17:28:56;17.70;86.00
5196;DHT22;2617;51.006;12.436;2023-04-23T17:33:59;17.40;87.30
5196;DHT22;2617;51.006;12.436;2023-04-23T17:39:01;17.30;88.30
5196;DHT22;2617;51.006;12.436;2023-04-23T17:44:04;17.10;90.00
5196;DHT22;2617;51.006;12.436;2023-04-23T17:49:06;16.90;90.50
5196;DHT22;2617;51.006;12.436;2023-04-23T17:54:08;16.70;91.20
5196;DHT22;2617;51.006;12.436;2023-04-23T17:59:11;16.50;93.50
5196;DHT22;2617;51.006;12.436;2023-04-23T18:04:13;16.40;96.10
5196;DHT22;2617;51.006;12.436;2023-04-23T18:09:16;16.10;98.80
5196;DHT22;2617;51.006;12.436;2023-04-23T18:14:18;15.90;99.90
5196;DHT22;2617;51.006;12.436;2023-04-23T18:19:21;15.70;99.90
5196;DHT22;2617;51.006;12.436;2023-04-23T18:24:24;15.20;99.90
5196;DHT22;2617;51.006;12.436;2023-04-23T18:29:27;15.10;99.90
5196;DHT22;2617;51.006;12.436;2023-04-23T18:34:30;15.00;99.90
5196;DHT22;2617;51.006;12.436;2023-04-23T18:39:33;14.60;99.90
5196;DHT22;2617;51.006;12.436;2023-04-23T18:44:36;14.50;99.90
5196;DHT22;2617;51.006;12.436;2023-04-23T18:49:43;14.40;99.90
5196;DHT22;2617;51.006;12.436;2023-04-23T18:54:45;14.30;99.90
5196;DHT22;2617;51.006;12.436;2023-04-23T18:59:47;14.10;99.90
5196;DHT22;2617;51.006;12.436;2023-04-23T19:04:50;14.00;99.90
5196;DHT22;2617;51.006;12.436;2023-04-23T19:09:52;13.90;99.90
5196;DHT22;2617;51.006;12.436;2023-04-23T19:14:54;13.80;99.90
5196;DHT22;2617;51.006;12.436;2023-04-23T19:19:57;13.70;99.90
5196;DHT22;2617;51.006;12.436;2023-04-23T19:25:00;13.60;99.90
5196;DHT22;2617;51.006;12.436;2023-04-23T19:30:03;13.40;99.90
5196;DHT22;2617;51.006;12.436;2023-04-23T19:35:07;13.30;99.90
5196;DHT22;2617;51.006;12.436;2023-04-23T19:40:09;13.30;99.90
5196;DHT22;2617;51.006;12.436;2023-04-23T19:45:12;13.10;99.90
5196;DHT22;2617;51.006;12.436;2023-04-23T19:50:14;13.00;99.90
5196;DHT22;2617;51.006;12.436;2023-04-23T19:55:17;13.00;99.90
5196;DHT22;2617;51.006;12.436;2023-04-23T20:00:20;12.90;99.90
5196;DHT22;2617;51.006;12.436;2023-04-23T20:05:22;12.90;99.90
5196;DHT22;2617;51.006;12.436;2023-04-23T20:10:24;12.90;99.90
5196;DHT22;2617;51.006;12.436;2023-04-23T20:15:28;12.80;99.90
5196;DHT22;2617;51.006;12.436;2023-04-23T20:20:30;12.80;99.90
5196;DHT22;2617;51.006;12.436;2023-04-23T20:25:33;12.70;99.90
5196;DHT22;2617;51.006;12.436;2023-04-23T20:30:36;12.60;99.90
5196;DHT22;2617;51.006;12.436;2023-04-23T20:35:38;12.60;99.90
5196;DHT22;2617;51.006;12.436;2023-04-23T20:40:41;12.50;99.90
5196;DHT22;2617;51.006;12.436;2023-04-23T20:45:43;12.50;99.90
5196;DHT22;2617;51.006;12.436;2023-04-23T20:50:46;12.50;99.90
5196;DHT22;2617;51.006;12.436;2023-04-23T20:55:49;12.50;99.90
5196;DHT22;2617;51.006;12.436;2023-04-23T21:00:51;12.50;99.90
5196;DHT22;2617;51.006;12.436;2023-04-23T21:05:54;12.50;99.90
5196;DHT22;2617;51.006;12.436;2023-04-23T21:10:56;12.50;99.90
5196;DHT22;2617;51.006;12.436;2023-04-23T21:15:59;12.50;99.90
5196;DHT22;2617;51.006;12.436;2023-04-23T21:21:01;12.60;99.90
5196;DHT22;2617;51.006;12.436;2023-04-23T21:26:05;12.60;99.90
5196;DHT22;2617;51.006;12.436;2023-04-23T21:31:12;12.50;99.90
5196;DHT22;2617;51.006;12.436;2023-04-23T21:36:12;12.60;99.90
5196;DHT22;2617;51.006;12.436;2023-04-23T21:41:14;12.60;99.90
5196;DHT22;2617;51.006;12.436;2023-04-23T21:46:17;12.60;99.90
5196;DHT22;2617;51.006;12.436;2023-04-23T21:51:20;12.70;99.90
5196;DHT22;2617;51.006;12.436;2023-04-23T21:56:23;12.70;99.90
5196;DHT22;2617;51.006;12.436;2023-04-23T22:01:25;12.70;99.90
5196;DHT22;2617;51.006;12.436;2023-04-23T22:06:30;12.80;99.90
5196;DHT22;2617;51.006;12.436;2023-04-23T22:11:32;12.70;99.90
5196;DHT22;2617;51.006;12.436;2023-04-23T22:16:34;12.70;99.90
5196;DHT22;2617;51.006;12.436;2023-04-23T22:21:38;12.70;99.90
5196;DHT22;2617;51.006;12.436;2023-04-23T22:26:40;12.70;99.90
5196;DHT22;2617;51.006;12.436;2023-04-23T22:31:43;12.80;99.90
5196;DHT22;2617;51.006;12.436;2023-04-23T22:36:46;12.80;99.90
5196;DHT22;2617;51.006;12.436;2023-04-23T22:41:48;12.80;99.90
5196;DHT22;2617;51.006;12.436;2023-04-23T22:46:50;12.80;99.90
5196;DHT22;2617;51.006;12.436;2023-04-23T22:51:54;12.70;99.90
5196;DHT22;2617;51.006;12.436;2023-04-23T22:56:56;12.60;99.90
5196;DHT22;2617;51.006;12.436;2023-04-23T23:02:00;12.50;99.90
5196;DHT22;2617;51.006;12.436;2023-04-23T23:07:02;12.30;99.90
5196;DHT22;2617;51.006;12.436;2023-04-23T23:12:05;12.00;99.90
5196;DHT22;2617;51.006;12.436;2023-04-23T23:17:09;11.90;99.90
5196;DHT22;2617;51.006;12.436;2023-04-23T23:22:11;11.90;99.90
5196;DHT22;2617;51.006;12.436;2023-04-23T23:27:13;11.80;99.90
5196;DHT22;2617;51.006;12.436;2023-04-23T23:32:16;11.80;99.90
5196;DHT22;2617;51.006;12.436;2023-04-23T23:37:18;11.70;99.90
5196;DHT22;2617;51.006;12.436;2023-04-23T23:42:21;11.70;99.90
5196;DHT22;2617;51.006;12.436;2023-04-23T23:47:23;11.70;99.90
5196;DHT22;2617;51.006;12.436;2023-04-23T23:52:26;11.70;99.90
5196;DHT22;2617;51.006;12.436;2023-04-23T23:57:29;11.60;99.90
